Time;durP1;ratioP1;P1;durP2;ratioP2;P2;SDS_P1;SDS_P2;PMS_P1;PMS_P2;Temp;Humidity;BMP_temperature;BMP_pressure;BME280_temperature;BME280_humidity;BME280_pressure;Samples;Min_cycle;Max_cycle;Signal;HPM_P1;HPM_P2
2022/10/05 00:01:40;;;;;;;8.00;5.05;;;15.70;99.90;;;;;;5092256;28;20054;-49
2022/10/05 00:04:15;;;;;;;8.52;5.18;;;15.70;99.90;;;;;;5093250;28;20075;-47
2022/10/05 00:06:57;;;;;;;7.18;4.93;;;15.70;99.90;;;;;;5093287;28;20028;-48
2022/10/05 00:09:23;;;;;;;8.95;5.25;;;15.70;99.90;;;;;;5093362;28;20105;-44
2022/10/05 00:11:49;;;;;;;8.13;5.00;;;15.70;99.90;;;;;;5093312;28;20036;-48
2022/10/05 00:14:22;;;;;;;6.90;5.22;;;15.70;99.90;;;;;;5093296;28;20150;-46
2022/10/05 00:16:48;;;;;;;7.90;5.35;;;15.80;99.90;;;;;;5093171;28;20033;-47
2022/10/05 00:19:27;;;;;;;9.73;6.25;;;15.80;99.90;;;;;;5093437;28;20028;-46
2022/10/05 00:21:57;;;;;;;9.43;6.10;;;15.70;99.90;;;;;;5093222;28;20028;-43
2022/10/05 00:24:23;;;;;;;10.57;6.93;;;15.80;99.90;;;;;;5093164;28;20036;-45
2022/10/05 00:26:49;;;;;;;9.13;7.00;;;15.80;99.90;;;;;;5092694;28;20123;-49
2022/10/05 00:29:22;;;;;;;11.95;6.95;;;15.70;99.90;;;;;;5092445;28;20443;-43
2022/10/05 00:31:49;;;;;;;10.00;6.88;;;15.70;99.90;;;;;;5092433;28;21076;-47
2022/10/05 00:34:16;;;;;;;10.80;7.45;;;15.70;99.90;;;;;;5093156;28;20471;-45
2022/10/05 00:36:42;;;;;;;10.40;6.78;;;15.70;99.90;;;;;;5092975;28;20082;-47
2022/10/05 00:39:08;;;;;;;10.05;7.28;;;15.70;99.90;;;;;;5092998;28;20368;-45
2022/10/05 00:42:03;;;;;;;9.32;6.85;;;15.70;99.90;;;;;;5092985;28;20032;-46
2022/10/05 00:44:36;;;;;;;8.52;7.05;;;15.80;99.90;;;;;;5062687;28;20140;-44
2022/10/05 00:47:27;;;;;;;10.13;7.20;;;15.70;99.90;;;;;;5092837;28;20102;-45
2022/10/05 00:50:20;;;;;;;11.40;7.25;;;15.70;99.90;;;;;;5092707;28;20040;-44
2022/10/05 00:53:02;;;;;;;10.93;7.22;;;15.70;99.90;;;;;;5092298;28;20035;-47
2022/10/05 00:55:56;;;;;;;10.00;6.82;;;15.70;99.90;;;;;;5092685;28;20098;-47
2022/10/05 00:58:46;;;;;;;9.30;6.82;;;15.60;99.90;;;;;;5092011;28;20079;-48
2022/10/05 01:01:16;;;;;;;12.68;7.60;;;15.70;99.90;;;;;;5092244;28;20078;-47
2022/10/05 01:04:06;;;;;;;11.75;7.53;;;15.70;99.90;;;;;;5092228;28;20051;-45
2022/10/05 01:06:38;;;;;;;10.57;7.30;;;15.70;99.90;;;;;;5092581;28;20470;-47
2022/10/05 01:09:18;;;;;;;12.38;7.72;;;15.60;99.90;;;;;;5092338;28;20039;-45
2022/10/05 01:12:06;;;;;;;12.18;7.95;;;15.60;99.90;;;;;;5092492;28;20078;-46
2022/10/05 01:14:40;;;;;;;10.20;7.50;;;15.60;99.90;;;;;;5092295;28;20135;-45
2022/10/05 01:17:20;;;;;;;;;;;15.60;99.90;;;;;;5092536;28;20040;-45
2022/10/05 01:20:08;;;;;;;10.77;7.78;;;15.50;99.90;;;;;;5092389;28;20366;-43
2022/10/05 01:23:08;;;;;;;10.18;7.93;;;15.60;99.90;;;;;;5090489;28;20048;-48
2022/10/05 01:25:46;;;;;;;10.85;7.72;;;15.50;99.90;;;;;;5091466;28;20047;-48
2022/10/05 01:28:24;;;;;;;10.40;8.25;;;15.60;99.90;;;;;;5090143;28;20060;-45
2022/10/05 01:30:53;;;;;;;10.68;7.55;;;15.60;99.90;;;;;;5091660;28;20032;-44
2022/10/05 01:33:32;;;;;;;14.00;8.40;;;15.50;99.90;;;;;;5091809;28;20231;-46
2022/10/05 01:36:22;;;;;;;18.52;8.32;;;15.50;99.90;;;;;;5091747;28;20032;-47
2022/10/05 01:38:53;;;;;;;10.13;7.40;;;15.50;99.90;;;;;;5090601;28;20101;-47
2022/10/05 01:41:41;;;;;;;16.77;7.60;;;15.50;99.90;;;;;;5090158;28;20051;-45
2022/10/05 01:44:46;;;;;;;10.63;7.22;;;15.50;99.90;;;;;;5092096;28;20548;-47
2022/10/05 01:47:30;;;;;;;10.10;7.50;;;15.60;99.90;;;;;;5059688;28;20048;-44
2022/10/05 01:50:33;;;;;;;10.32;7.05;;;15.40;99.90;;;;;;5090766;28;20044;-47
2022/10/05 01:53:02;;;;;;;10.68;7.38;;;15.40;99.90;;;;;;5091911;28;20035;-45
2022/10/05 01:55:46;;;;;;;10.48;7.10;;;15.50;99.90;;;;;;5091490;28;20043;-49
2022/10/05 01:58:23;;;;;;;9.27;7.03;;;15.50;99.90;;;;;;5090707;28;20051;-45
2022/10/05 02:01:05;;;;;;;11.48;6.93;;;15.50;99.90;;;;;;5090953;28;20123;-45
2022/10/05 02:03:58;;;;;;;9.52;6.70;;;15.50;99.90;;;;;;5090802;28;20035;-46
2022/10/05 02:06:28;;;;;;;8.13;6.75;;;15.40;99.90;;;;;;5090306;28;20116;-48
2022/10/05 02:09:07;;;;;;;8.20;6.32;;;15.50;99.90;;;;;;5091374;28;20044;-46
2022/10/05 02:11:34;;;;;;;10.25;6.38;;;15.40;99.90;;;;;;5090878;28;20036;-46
2022/10/05 02:14:10;;;;;;;8.65;6.07;;;15.40;99.90;;;;;;5091123;28;20149;-46
2022/10/05 02:16:45;;;;;;;10.80;6.32;;;15.40;99.90;;;;;;5091181;28;20464;-43
2022/10/05 02:19:21;;;;;;;10.68;6.60;;;15.30;99.90;;;;;;5091193;28;20499;-48
2022/10/05 02:21:52;;;;;;;9.60;6.65;;;15.40;99.90;;;;;;5090888;28;20044;-44
2022/10/05 02:24:23;;;;;;;10.65;6.50;;;15.40;99.90;;;;;;5090804;28;20111;-44
2022/10/05 02:26:51;;;;;;;8.85;5.97;;;15.40;99.90;;;;;;5091004;28;20048;-45
2022/10/05 02:29:18;;;;;;;9.52;5.80;;;15.40;99.90;;;;;;5090037;28;20044;-48
2022/10/05 02:31:59;;;;;;;10.80;6.78;;;15.40;99.90;;;;;;5090757;28;20075;-45
2022/10/05 02:34:34;;;;;;;9.10;6.47;;;15.30;99.90;;;;;;5090206;28;20138;-46
2022/10/05 02:37:28;;;;;;;9.27;6.35;;;15.30;99.90;;;;;;5089468;28;20540;-46
2022/10/05 02:40:11;;;;;;;8.75;6.00;;;15.40;99.90;;;;;;5090386;28;20036;-44
2022/10/05 02:43:03;;;;;;;10.37;6.13;;;15.40;99.90;;;;;;5090458;28;20388;-43
2022/10/05 02:45:43;;;;;;;10.27;5.85;;;15.30;99.90;;;;;;5090782;28;20040;-45
2022/10/05 02:48:24;;;;;;;9.68;6.25;;;15.40;99.90;;;;;;5089879;28;20039;-45
2022/10/05 02:51:11;;;;;;;9.70;6.65;;;15.30;99.90;;;;;;5090567;28;20028;-49
2022/10/05 02:54:04;;;;;;;8.90;6.00;;;15.40;99.90;;;;;;5090311;28;20475;-46
2022/10/05 02:56:50;;;;;;;8.70;6.28;;;15.30;99.90;;;;;;5089183;28;20387;-47
2022/10/05 02:59:37;;;;;;;10.38;6.38;;;15.40;99.90;;;;;;5089906;28;20059;-47
2022/10/05 03:02:25;;;;;;;11.45;6.40;;;15.30;99.90;;;;;;5090073;28;20141;-46
2022/10/05 03:05:15;;;;;;;11.15;7.03;;;15.30;99.90;;;;;;5090709;28;20040;-47
2022/10/05 03:07:46;;;;;;;10.35;6.47;;;15.20;99.90;;;;;;5090409;28;20032;-44
2022/10/05 03:10:23;;;;;;;9.57;6.85;;;15.20;99.90;;;;;;5090134;28;20039;-47
2022/10/05 03:13:07;;;;;;;10.07;7.25;;;15.20;99.90;;;;;;5090128;28;20039;-44
2022/10/05 03:15:53;;;;;;;9.85;6.50;;;15.10;99.90;;;;;;5090423;28;20040;-45
2022/10/05 03:18:33;;;;;;;8.57;6.78;;;15.10;99.90;;;;;;5090254;28;20079;-46
2022/10/05 03:21:43;;;;;;;10.30;7.10;;;15.00;99.90;;;;;;5090138;28;20647;-46
2022/10/05 03:24:21;;;;;;;9.48;6.68;;;15.10;99.90;;;;;;5089702;28;20226;-46
2022/10/05 03:27:20;;;;;;;9.80;6.63;;;15.00;99.90;;;;;;5090387;28;20171;-43
2022/10/05 03:30:04;;;;;;;10.00;7.70;;;15.10;99.90;;;;;;5072657;28;20127;-44
2022/10/05 03:32:40;;;;;;;11.93;7.85;;;15.10;99.90;;;;;;5090110;28;20044;-47
2022/10/05 03:35:33;;;;;;;10.77;7.70;;;15.10;99.90;;;;;;5090009;28;20087;-47
2022/10/05 03:38:20;;;;;;;14.05;8.23;;;15.10;99.90;;;;;;5089863;28;20352;-45
2022/10/05 03:40:50;;;;;;;11.45;8.30;;;15.10;99.90;;;;;;5089665;28;20079;-50
2022/10/05 03:43:37;;;;;;;11.18;7.80;;;15.00;99.90;;;;;;5090102;28;20039;-47
2022/10/05 03:46:11;;;;;;;12.57;7.68;;;15.10;99.90;;;;;;5089648;28;20169;-46
2022/10/05 03:48:55;;;;;;;;;;;15.00;99.90;;;;;;5090331;28;20356;-45
2022/10/05 03:51:33;;;;;;;12.55;9.38;;;15.10;99.90;;;;;;5088684;28;19970;-47
2022/10/05 03:54:10;;;;;;;13.45;8.45;;;15.00;99.90;;;;;;5089937;28;20425;-47
2022/10/05 03:56:48;;;;;;;13.32;8.68;;;15.00;99.90;;;;;;5090225;28;20027;-45
2022/10/05 03:59:43;;;;;;;13.80;9.15;;;15.00;99.90;;;;;;5089169;28;20044;-47
2022/10/05 04:02:35;;;;;;;13.50;9.05;;;15.00;99.90;;;;;;5089117;28;20113;-48
2022/10/05 04:05:16;;;;;;;10.13;7.85;;;15.10;99.90;;;;;;5089903;28;20046;-45
2022/10/05 04:08:18;;;;;;;12.52;8.73;;;15.10;99.90;;;;;;5093126;28;20043;-44
2022/10/05 04:10:53;;;;;;;12.75;8.57;;;15.00;99.90;;;;;;5038112;28;20057;-43
2022/10/05 04:13:51;;;;;;;12.93;8.25;;;15.10;99.90;;;;;;5093471;28;20476;-45
2022/10/05 04:16:33;;;;;;;12.60;8.52;;;15.10;99.90;;;;;;5081520;28;20043;-47
2022/10/05 04:19:17;;;;;;;12.30;8.23;;;15.00;99.90;;;;;;5092862;28;20044;-46
2022/10/05 04:21:58;;;;;;;;;;;15.10;99.90;;;;;;5093731;28;20035;-46
2022/10/05 04:24:47;;;;;;;13.93;8.60;;;15.00;99.90;;;;;;5093471;28;19923;-45
2022/10/05 04:27:30;;;;;;;12.88;8.52;;;15.00;99.90;;;;;;5092861;28;20051;-46
2022/10/05 04:30:18;;;;;;;12.02;8.95;;;14.90;99.90;;;;;;5093066;28;20072;-47
2022/10/05 04:32:53;;;;;;;13.90;8.73;;;15.00;99.90;;;;;;5092575;28;20040;-45
2022/10/05 04:35:37;;;;;;;12.60;8.55;;;15.00;99.90;;;;;;5093189;28;20040;-45
2022/10/05 04:38:25;;;;;;;13.88;9.02;;;14.90;99.90;;;;;;5091557;28;20044;-46
2022/10/05 04:41:09;;;;;;;11.30;8.57;;;15.00;99.90;;;;;;5093060;28;20040;-47
2022/10/05 04:43:56;;;;;;;11.00;8.13;;;15.00;99.90;;;;;;5091698;28;20075;-47
2022/10/05 04:46:37;;;;;;;14.80;8.60;;;15.00;99.90;;;;;;5091171;28;20055;-45
2022/10/05 04:49:11;;;;;;;10.73;7.93;;;14.90;99.90;;;;;;5092910;28;20066;-46
2022/10/05 04:52:09;;;;;;;10.88;7.72;;;14.90;99.90;;;;;;5092507;28;20119;-45
2022/10/05 04:55:12;;;;;;;9.43;7.97;;;15.00;99.90;;;;;;5092538;28;20035;-47
2022/10/05 04:57:54;;;;;;;14.75;8.38;;;15.00;99.90;;;;;;5092718;28;20061;-44
2022/10/05 05:00:27;;;;;;;13.75;8.30;;;15.00;99.90;;;;;;5091113;28;20083;-47
2022/10/05 05:03:18;;;;;;;12.10;8.45;;;14.90;99.90;;;;;;5092479;28;20040;-44
2022/10/05 05:06:15;;;;;;;10.70;8.15;;;15.00;99.90;;;;;;5092419;28;20032;-46
2022/10/05 05:08:50;;;;;;;9.57;7.43;;;15.00;99.90;;;;;;5092491;28;20481;-44
2022/10/05 05:11:40;;;;;;;11.77;7.90;;;15.00;99.90;;;;;;5091970;28;20081;-44
2022/10/05 05:14:20;;;;;;;9.77;6.72;;;15.00;99.90;;;;;;5092290;28;20145;-46
2022/10/05 05:17:16;;;;;;;10.35;7.18;;;15.00;99.90;;;;;;5091193;28;20028;-46
2022/10/05 05:20:10;;;;;;;10.70;7.35;;;14.90;99.90;;;;;;5066895;28;20051;-47
2022/10/05 05:23:07;;;;;;;10.60;7.87;;;14.90;99.90;;;;;;5090842;28;20531;-46
2022/10/05 05:26:06;;;;;;;10.73;7.55;;;15.00;99.90;;;;;;5090633;28;20043;-43
2022/10/05 05:28:55;;;;;;;11.55;8.05;;;14.90;99.90;;;;;;5091401;28;20052;-49
2022/10/05 05:31:47;;;;;;;11.23;7.72;;;15.00;99.90;;;;;;5090992;28;20044;-45
2022/10/05 05:34:44;;;;;;;12.88;7.25;;;15.00;99.90;;;;;;5092029;28;20036;-45
2022/10/05 05:37:36;;;;;;;10.43;8.10;;;14.90;99.90;;;;;;5091709;28;20035;-49
2022/10/05 05:40:16;;;;;;;11.00;8.02;;;14.90;99.90;;;;;;5091553;28;20084;-45
2022/10/05 05:42:49;;;;;;;11.90;8.70;;;14.90;99.90;;;;;;5090707;28;20466;-46
2022/10/05 05:45:28;;;;;;;12.00;8.68;;;14.90;99.90;;;;;;5091779;28;20040;-49
2022/10/05 05:47:58;;;;;;;12.60;8.55;;;14.90;99.90;;;;;;5091745;28;20513;-48
2022/10/05 05:50:45;;;;;;;12.48;8.88;;;14.90;99.90;;;;;;5091656;28;20036;-46
2022/10/05 05:53:17;;;;;;;13.43;9.20;;;14.90;99.90;;;;;;5091619;28;20059;-49
2022/10/05 05:55:59;;;;;;;10.82;8.43;;;14.80;99.90;;;;;;5090544;28;20032;-46
2022/10/05 05:58:32;;;;;;;11.43;8.50;;;14.90;99.90;;;;;;5091517;28;20040;-47
2022/10/05 06:01:23;;;;;;;10.40;7.83;;;14.90;99.90;;;;;;5090963;28;20047;-47
2022/10/05 06:04:09;;;;;;;11.32;8.32;;;14.90;99.90;;;;;;5091356;28;20288;-45
2022/10/05 06:06:38;;;;;;;12.05;8.02;;;14.90;99.90;;;;;;5091109;28;20079;-45
2022/10/05 06:09:16;;;;;;;13.27;7.80;;;14.90;99.90;;;;;;5090997;28;20127;-47
2022/10/05 06:11:45;;;;;;;9.02;7.60;;;14.90;99.90;;;;;;5090704;28;20075;-44
2022/10/05 06:14:21;;;;;;;11.02;8.35;;;14.90;99.90;;;;;;5091130;28;20024;-44
2022/10/05 06:16:54;;;;;;;10.52;8.45;;;15.00;99.90;;;;;;5090750;28;20036;-46
2022/10/05 06:19:22;;;;;;;10.77;8.13;;;15.00;99.90;;;;;;5089482;28;20048;-45
2022/10/05 06:22:12;;;;;;;10.25;7.82;;;15.00;99.90;;;;;;5091165;28;20119;-48
2022/10/05 06:24:49;;;;;;;11.38;8.27;;;15.00;99.90;;;;;;5090170;28;20080;-49
2022/10/05 06:27:17;;;;;;;9.32;7.63;;;15.00;99.90;;;;;;5090240;28;20032;-44
2022/10/05 06:29:43;;;;;;;9.07;7.25;;;15.00;99.90;;;;;;5090286;28;20086;-45
2022/10/05 06:32:28;;;;;;;12.65;8.40;;;14.90;99.90;;;;;;5090668;28;20043;-46
2022/10/05 06:35:03;;;;;;;11.20;7.68;;;15.00;99.90;;;;;;5090787;28;20035;-46
2022/10/05 06:37:49;;;;;;;9.05;6.65;;;15.00;99.90;;;;;;5089485;28;20040;-45
2022/10/05 06:40:29;;;;;;;8.07;7.13;;;15.00;99.90;;;;;;5090649;28;20496;-45
2022/10/05 06:43:32;;;;;;;8.93;6.53;;;15.00;99.90;;;;;;5090691;28;20058;-48
2022/10/05 06:46:22;;;;;;;9.55;7.35;;;15.00;99.90;;;;;;5089058;28;20039;-45
2022/10/05 06:49:12;;;;;;;8.63;6.47;;;15.00;99.90;;;;;;5089323;28;20043;-46
2022/10/05 06:51:41;;;;;;;8.85;6.38;;;15.00;99.90;;;;;;5090592;28;20043;-46
2022/10/05 06:54:13;;;;;;;7.38;6.55;;;14.90;99.90;;;;;;5090629;28;20040;-45
2022/10/05 06:56:47;;;;;;;9.38;6.00;;;15.00;99.90;;;;;;5090475;28;20036;-46
2022/10/05 06:59:21;;;;;;;8.25;6.43;;;15.00;99.90;;;;;;5090049;28;20039;-44
2022/10/05 07:02:10;;;;;;;7.35;5.25;;;15.10;99.90;;;;;;5088721;28;20035;-49
2022/10/05 07:05:06;;;;;;;7.15;5.05;;;15.10;99.90;;;;;;5090445;28;20098;-49
2022/10/05 07:08:07;;;;;;;7.07;4.43;;;15.00;99.90;;;;;;5090252;28;20032;-45
2022/10/05 07:10:57;;;;;;;6.80;4.65;;;15.10;99.90;;;;;;5085646;28;20059;-46
2022/10/05 07:14:00;;;;;;;5.88;4.38;;;15.20;99.90;;;;;;5090208;28;20076;-45
2022/10/05 07:16:50;;;;;;;6.47;4.28;;;15.10;99.90;;;;;;5090512;28;20062;-44
2022/10/05 07:19:34;;;;;;;8.05;4.63;;;15.20;99.90;;;;;;5087729;28;20475;-45
2022/10/05 07:22:30;;;;;;;6.38;4.63;;;15.20;99.90;;;;;;5089948;28;20036;-45
2022/10/05 07:25:08;;;;;;;8.05;4.60;;;15.20;99.90;;;;;;5090314;28;20089;-44
2022/10/05 07:27:53;;;;;;;6.68;4.80;;;15.30;99.90;;;;;;5088868;28;20110;-47
2022/10/05 07:30:19;;;;;;;6.50;4.80;;;15.30;99.90;;;;;;5089804;28;20050;-46
2022/10/05 07:33:19;;;;;;;7.40;4.63;;;15.30;99.90;;;;;;5090077;28;20450;-43
2022/10/05 07:39:23;;;;;;;6.93;5.78;;;15.30;99.90;;;;;;5090044;28;20126;-45
2022/10/05 07:41:58;;;;;;;6.95;5.13;;;15.20;99.90;;;;;;5093969;28;20080;-43
2022/10/05 07:44:37;;;;;;;8.48;6.20;;;15.30;99.90;;;;;;5092339;28;20097;-46
2022/10/05 07:47:18;;;;;;;8.25;6.10;;;15.30;99.90;;;;;;5093901;28;20032;-44
2022/10/05 07:49:46;;;;;;;9.40;6.25;;;15.30;99.90;;;;;;5092951;28;20040;-49
2022/10/05 07:52:24;;;;;;;8.40;6.03;;;15.30;99.90;;;;;;5093606;28;20032;-45
2022/10/05 07:55:05;;;;;;;8.32;5.80;;;15.30;99.90;;;;;;5093676;28;20400;-46
2022/10/05 07:57:52;;;;;;;7.88;5.80;;;15.30;99.90;;;;;;5093698;28;20043;-50
2022/10/05 08:00:21;;;;;;;8.23;5.63;;;15.30;99.90;;;;;;5093229;28;20101;-44
2022/10/05 08:03:04;;;;;;;7.68;5.90;;;15.30;99.90;;;;;;5093812;28;20085;-48
2022/10/05 08:05:40;;;;;;;8.73;5.80;;;15.30;99.90;;;;;;5092994;28;20374;-45
2022/10/05 08:08:15;;;;;;;8.10;5.47;;;15.40;99.90;;;;;;5093334;28;20127;-45
2022/10/05 08:10:40;;;;;;;7.38;5.50;;;15.40;99.90;;;;;;5092325;28;20036;-46
2022/10/05 08:13:39;;;;;;;7.47;5.75;;;15.40;99.90;;;;;;5093594;28;20058;-46
2022/10/05 08:16:13;;;;;;;7.30;5.68;;;15.50;99.90;;;;;;5092285;28;20127;-45
2022/10/05 08:18:56;;;;;;;7.65;5.50;;;15.50;99.90;;;;;;5093482;28;20040;-46
2022/10/05 08:21:31;;;;;;;6.97;5.47;;;15.60;99.90;;;;;;5093113;28;20048;-49
2022/10/05 08:24:29;;;;;;;7.15;5.65;;;15.50;99.90;;;;;;5093128;28;20039;-44
2022/10/05 08:27:16;;;;;;;7.05;4.60;;;15.50;99.90;;;;;;5067875;28;20048;-47
2022/10/05 08:29:52;;;;;;;8.13;4.45;;;15.70;99.90;;;;;;5093044;28;20059;-50
2022/10/05 08:32:30;;;;;;;10.25;4.78;;;15.60;99.90;;;;;;5092997;28;20036;-48
2022/10/05 08:35:33;;;;;;;7.68;4.40;;;15.70;99.90;;;;;;5093314;28;20047;-48
2022/10/05 08:38:10;;;;;;;7.82;4.55;;;15.80;99.90;;;;;;5092363;28;20039;-46
2022/10/05 08:40:39;;;;;;;6.57;4.13;;;15.80;99.90;;;;;;5093146;28;20044;-49
2022/10/05 08:43:32;;;;;;;6.43;3.88;;;15.80;99.90;;;;;;5092745;28;20047;-47
2022/10/05 08:46:09;;;;;;;6.20;3.70;;;15.80;99.90;;;;;;5093094;28;20486;-44
2022/10/05 08:48:53;;;;;;;6.53;4.00;;;15.90;99.90;;;;;;5092953;28;20032;-46
2022/10/05 08:51:28;;;;;;;5.80;4.00;;;15.90;99.90;;;;;;5090956;28;20054;-47
2022/10/05 08:54:15;;;;;;;7.70;4.32;;;15.90;99.90;;;;;;5074466;28;20144;-48
2022/10/05 08:57:03;;;;;;;6.70;3.97;;;15.90;99.90;;;;;;5092782;28;20043;-44
2022/10/05 08:59:56;;;;;;;8.02;3.60;;;15.90;99.90;;;;;;5092444;28;20540;-47
2022/10/05 09:02:48;;;;;;;6.28;3.70;;;16.00;99.90;;;;;;5092247;28;20132;-46
2022/10/05 09:05:32;;;;;;;8.48;4.00;;;16.00;99.90;;;;;;5068445;28;20052;-49
2022/10/05 09:08:34;;;;;;;6.43;3.92;;;16.00;99.90;;;;;;5092577;28;20044;-46
2022/10/05 09:11:05;;;;;;;5.82;3.00;;;16.10;99.90;;;;;;5091299;28;20048;-48
2022/10/05 09:14:02;;;;;;;5.88;3.65;;;16.10;99.90;;;;;;5092130;28;20081;-45
2022/10/05 09:16:49;;;;;;;5.30;3.53;;;16.20;99.90;;;;;;5092396;28;20028;-46
2022/10/05 09:19:26;;;;;;;5.72;3.75;;;16.10;99.90;;;;;;5091286;28;20040;-48
2022/10/05 09:22:34;;;;;;;6.72;3.80;;;16.20;99.90;;;;;;5091781;28;20040;-46
2022/10/05 09:25:42;;;;;;;5.25;3.50;;;16.20;99.90;;;;;;5029472;28;20053;-48
2022/10/05 09:28:22;;;;;;;4.85;3.22;;;16.20;99.90;;;;;;4993217;28;20054;-47
2022/10/05 09:30:56;;;;;;;5.90;3.55;;;16.30;99.90;;;;;;5082537;28;20040;-46
2022/10/05 09:33:25;;;;;;;6.72;3.80;;;16.20;99.90;;;;;;5091903;28;20046;-46
2022/10/05 09:36:12;;;;;;;6.65;4.20;;;16.30;99.90;;;;;;5092071;28;20043;-45
2022/10/05 09:39:02;;;;;;;5.00;3.58;;;16.30;99.90;;;;;;5092050;28;20040;-48
2022/10/05 09:42:15;;;;;;;5.68;4.03;;;16.30;99.90;;;;;;5091800;28;20036;-47
2022/10/05 09:45:01;;;;;;;5.72;3.90;;;16.30;99.90;;;;;;5029020;28;20382;-44
2022/10/05 09:47:35;;;;;;;6.28;4.47;;;16.30;99.90;;;;;;5029100;28;20045;-43
2022/10/05 09:50:29;;;;;;;5.25;4.10;;;16.20;99.90;;;;;;5069983;28;20368;-45
2022/10/05 09:53:03;;;;;;;5.97;3.73;;;16.30;99.90;;;;;;5091375;28;20035;-49
2022/10/05 09:55:32;;;;;;;9.93;4.40;;;16.30;99.90;;;;;;5091191;28;20308;-46
2022/10/05 09:58:06;;;;;;;6.38;4.13;;;16.20;99.90;;;;;;5091492;28;20399;-45
2022/10/05 10:00:41;;;;;;;7.55;4.38;;;16.20;99.90;;;;;;5091216;28;20081;-45
2022/10/05 10:03:33;;;;;;;6.78;4.15;;;16.30;99.90;;;;;;5090706;28;20483;-47
2022/10/05 10:06:30;;;;;;;6.93;4.60;;;16.30;99.90;;;;;;5091050;28;20089;-47
2022/10/05 10:09:07;;;;;;;8.23;4.07;;;16.30;99.90;;;;;;5090379;28;20047;-46
2022/10/05 10:11:47;;;;;;;6.85;4.93;;;16.40;99.90;;;;;;5091063;28;20040;-47
2022/10/05 10:14:29;;;;;;;6.95;4.38;;;16.40;99.90;;;;;;5091374;28;20045;-46
2022/10/05 10:17:10;;;;;;;5.90;3.83;;;16.50;99.90;;;;;;5091207;28;20032;-49
2022/10/05 10:19:57;;;;;;;5.43;4.00;;;16.40;99.90;;;;;;5091207;28;20087;-45
2022/10/05 10:22:58;;;;;;;8.35;4.55;;;16.50;99.90;;;;;;5089322;28;20047;-44
2022/10/05 10:25:39;;;;;;;6.10;4.13;;;16.60;99.90;;;;;;5091056;28;20478;-44
2022/10/05 10:28:34;;;;;;;5.53;3.85;;;16.60;99.90;;;;;;5090636;28;20098;-45
2022/10/05 10:31:27;;;;;;;5.57;3.70;;;16.60;99.90;;;;;;5090190;28;20080;-45
2022/10/05 10:34:05;;;;;;;5.32;3.65;;;16.70;99.90;;;;;;5090416;28;20044;-46
2022/10/05 10:36:50;;;;;;;4.68;3.45;;;16.70;99.90;;;;;;5090919;28;20040;-43
2022/10/05 10:39:40;;;;;;;5.63;3.42;;;16.70;99.90;;;;;;5090956;28;20043;-45
2022/10/05 10:42:24;;;;;;;4.65;3.08;;;16.80;99.90;;;;;;5090850;28;20031;-45
2022/10/05 10:45:34;;;;;;;5.25;3.80;;;16.80;99.90;;;;;;5090284;28;20434;-43
2022/10/05 10:48:29;;;;;;;6.55;3.60;;;16.80;99.90;;;;;;5089663;28;20067;-44
2022/10/05 10:51:13;;;;;;;;;;;17.00;99.90;;;;;;5061597;28;20040;-47
2022/10/05 10:54:01;;;;;;;7.03;4.70;;;17.00;99.90;;;;;;5090571;28;20260;-46
2022/10/05 10:57:06;;;;;;;6.55;4.97;;;17.10;99.90;;;;;;5090263;28;20043;-43
2022/10/05 10:59:59;;;;;;;7.78;4.85;;;17.10;99.90;;;;;;5090161;28;20567;-44
2022/10/05 11:02:45;;;;;;;7.50;4.30;;;17.10;99.90;;;;;;5090856;28;20392;-46
2022/10/05 11:05:22;;;;;;;5.70;3.63;;;17.20;99.90;;;;;;5090396;28;20075;-45
2022/10/05 11:08:36;;;;;;;6.45;3.70;;;17.30;99.90;;;;;;5089575;28;20047;-44
2022/10/05 11:11:14;;;;;;;5.88;3.33;;;17.30;99.90;;;;;;5089646;28;20125;-46
2022/10/05 11:14:20;;;;;;;5.60;3.13;;;17.30;99.90;;;;;;5090300;28;20063;-50
2022/10/05 11:17:03;;;;;;;4.90;3.05;;;17.30;99.90;;;;;;5090491;28;20108;-47
2022/10/05 11:19:48;;;;;;;5.35;2.85;;;17.30;99.90;;;;;;5090390;28;20051;-45
2022/10/05 11:22:44;;;;;;;4.85;3.05;;;17.20;99.90;;;;;;5089604;28;20036;-43
2022/10/05 11:25:41;;;;;;;5.38;3.10;;;17.20;99.90;;;;;;5090091;28;20036;-46
2022/10/05 11:28:28;;;;;;;5.68;2.85;;;17.20;99.90;;;;;;5089871;28;20180;-46
2022/10/05 11:31:28;;;;;;;6.63;2.75;;;17.20;99.90;;;;;;5089717;28;20036;-47
2022/10/05 11:34:12;;;;;;;4.90;2.80;;;17.10;99.90;;;;;;5090146;28;20074;-44
2022/10/05 11:36:40;;;;;;;;;;;17.10;99.90;;;;;;5090566;28;20039;-45
2022/10/05 11:39:18;;;;;;;6.82;3.15;;;17.10;99.90;;;;;;5090091;28;20365;-45
2022/10/05 11:42:22;;;;;;;5.13;3.28;;;17.10;99.90;;;;;;5089619;28;20040;-46
2022/10/05 11:45:00;;;;;;;10.80;3.47;;;17.00;99.90;;;;;;5087220;28;20126;-46
2022/10/05 11:47:47;;;;;;;8.02;3.20;;;17.00;99.90;;;;;;5089745;28;20040;-44
2022/10/05 11:50:37;;;;;;;7.85;3.42;;;17.00;99.90;;;;;;5089979;28;20466;-44
2022/10/05 11:53:36;;;;;;;8.10;3.67;;;16.90;99.90;;;;;;5089703;28;20364;-44
2022/10/05 11:56:29;;;;;;;6.70;3.30;;;16.90;99.90;;;;;;5089958;28;20467;-49
2022/10/05 11:59:11;;;;;;;5.68;3.10;;;17.00;99.90;;;;;;5090027;28;20412;-50
2022/10/05 12:02:12;;;;;;;7.68;3.50;;;16.90;99.90;;;;;;5089668;28;20430;-47
2022/10/05 12:04:57;;;;;;;7.03;3.63;;;16.90;99.90;;;;;;5089854;28;20149;-45
2022/10/05 12:07:35;;;;;;;5.85;3.20;;;16.90;99.90;;;;;;5089413;28;20089;-46
2022/10/05 12:10:22;;;;;;;6.47;3.30;;;16.90;99.90;;;;;;5089472;28;20032;-46
2022/10/05 12:13:10;;;;;;;6.47;3.72;;;16.90;99.90;;;;;;5089725;28;20042;-47
2022/10/05 12:15:56;;;;;;;5.22;3.63;;;16.90;99.90;;;;;;5089407;28;20051;-45
2022/10/05 12:18:44;;;;;;;6.57;4.03;;;16.90;99.90;;;;;;5089722;28;20052;-44
2022/10/05 12:21:13;;;;;;;8.35;3.70;;;16.90;99.90;;;;;;5089634;28;20063;-45
2022/10/05 12:23:59;;;;;;;7.55;3.85;;;16.90;99.90;;;;;;5089757;28;20479;-46
2022/10/05 12:26:36;;;;;;;7.97;3.88;;;16.90;99.90;;;;;;5091579;28;20117;-45
2022/10/05 12:29:06;;;;;;;5.82;3.65;;;16.90;99.90;;;;;;5092020;28;20055;-43
2022/10/05 12:31:43;;;;;;;6.38;4.15;;;17.00;99.90;;;;;;5093078;28;20063;-45
2022/10/05 12:34:19;;;;;;;6.10;4.22;;;17.00;99.90;;;;;;5093231;28;20043;-47
2022/10/05 12:37:00;;;;;;;7.13;4.50;;;17.00;99.90;;;;;;5092974;28;20047;-45
2022/10/05 12:39:58;;;;;;;6.18;4.25;;;17.10;99.90;;;;;;5093012;28;20043;-45
2022/10/05 12:42:35;;;;;;;8.80;4.53;;;17.10;99.90;;;;;;5091562;28;20487;-44
2022/10/05 12:45:37;;;;;;;7.38;4.30;;;17.20;99.90;;;;;;5092891;28;20040;-47
2022/10/05 12:48:17;;;;;;;7.13;4.00;;;17.20;99.90;;;;;;5092482;28;20036;-45
2022/10/05 12:50:55;;;;;;;7.45;4.30;;;17.20;99.90;;;;;;5092200;28;20036;-44
2022/10/05 12:53:49;;;;;;;7.18;3.97;;;17.30;99.90;;;;;;5092567;28;20055;-49
2022/10/05 12:56:43;;;;;;;6.40;3.35;;;17.30;99.90;;;;;;5092847;28;20040;-46
2022/10/05 12:59:20;;;;;;;8.95;3.40;;;17.30;99.90;;;;;;5091632;28;20082;-46
2022/10/05 13:02:12;;;;;;;6.10;3.45;;;17.30;99.90;;;;;;5092647;28;20077;-46
2022/10/05 13:05:10;;;;;;;5.93;3.80;;;17.30;99.90;;;;;;5060525;28;20060;-47
2022/10/05 13:07:48;;;;;;;6.07;3.60;;;17.30;99.90;;;;;;5086832;28;20062;-45
2022/10/05 13:10:23;;;;;;;7.47;3.50;;;17.30;99.90;;;;;;5091234;28;20035;-47
2022/10/05 13:12:49;;;;;;;9.52;3.30;;;17.40;99.90;;;;;;5092636;28;20127;-46
2022/10/05 13:15:32;;;;;;;8.00;3.50;;;17.40;99.90;;;;;;5091106;28;20055;-46
2022/10/05 13:18:03;;;;;;;6.38;3.03;;;17.50;99.90;;;;;;5092465;28;20044;-44
2022/10/05 13:20:36;;;;;;;7.05;3.38;;;17.60;99.90;;;;;;5092450;28;20051;-44
2022/10/05 13:23:21;;;;;;;5.38;2.95;;;17.60;99.90;;;;;;5091974;28;20910;-44
2022/10/05 13:26:06;;;;;;;6.28;3.00;;;17.70;99.90;;;;;;5092456;28;20046;-45
2022/10/05 13:28:41;;;;;;;5.80;3.00;;;17.80;99.90;;;;;;5089486;28;20499;-44
2022/10/05 13:31:18;;;;;;;5.63;3.40;;;17.70;99.90;;;;;;5091384;28;20114;-48
2022/10/05 13:34:03;;;;;;;7.97;3.22;;;17.80;99.90;;;;;;5092138;28;20529;-48
2022/10/05 13:36:43;;;;;;;6.30;2.80;;;17.70;99.90;;;;;;5090190;28;20272;-47
2022/10/05 13:39:36;;;;;;;7.90;2.63;;;17.70;99.90;;;;;;5091668;28;20472;-46
2022/10/05 13:42:14;;;;;;;6.15;3.17;;;17.80;99.90;;;;;;5090707;28;20403;-45
2022/10/05 13:44:57;;;;;;;5.80;2.80;;;17.80;99.90;;;;;;5091600;28;20047;-46
2022/10/05 13:47:23;;;;;;;8.83;2.97;;;17.90;99.90;;;;;;5091062;28;20044;-48
2022/10/05 13:50:18;;;;;;;5.45;2.90;;;17.90;99.90;;;;;;5091771;28;20281;-46
2022/10/05 13:52:53;;;;;;;7.07;2.72;;;17.80;99.90;;;;;;5081316;28;20044;-47
2022/10/05 13:55:44;;;;;;;8.82;2.92;;;17.80;99.90;;;;;;5091670;28;20094;-47
2022/10/05 13:58:26;;;;;;;5.65;3.00;;;17.80;99.90;;;;;;5091485;28;20048;-46
2022/10/05 14:00:56;;;;;;;5.00;2.70;;;17.80;99.90;;;;;;5090373;28;20079;-46
2022/10/05 14:03:36;;;;;;;5.20;2.67;;;17.80;99.90;;;;;;5091597;28;20044;-45
2022/10/05 14:06:14;;;;;;;7.53;2.78;;;17.80;99.90;;;;;;5091054;28;20075;-43
2022/10/05 14:08:52;;;;;;;7.85;3.22;;;17.80;99.90;;;;;;5091416;28;20394;-47
2022/10/05 14:11:30;;;;;;;12.02;3.15;;;17.80;99.90;;;;;;5090120;28;20071;-47